sensor_id;sensor_type;location;lat;lon;timestamp;temperature;humidity
67817;DHT22;54614;47.576;7.524;2023-06-10T00:02:09;26.30;57.10
67817;DHT22;54614;47.576;7.524;2023-06-10T00:04:35;26.30;57.00
67817;DHT22;54614;47.576;7.524;2023-06-10T00:07:03;26.30;57.00
67817;DHT22;54614;47.576;7.524;2023-06-10T00:09:34;26.30;57.00
67817;DHT22;54614;47.576;7.524;2023-06-10T00:12:07;26.30;57.00
67817;DHT22;54614;47.576;7.524;2023-06-10T00:14:37;26.30;57.10
67817;DHT22;54614;47.576;7.524;2023-06-10T00:17:06;26.20;57.00
67817;DHT22;54614;47.576;7.524;2023-06-10T00:19:35;26.30;57.10
67817;DHT22;54614;47.576;7.524;2023-06-10T00:22:07;26.30;57.00
67817;DHT22;54614;47.576;7.524;2023-06-10T00:24:34;26.30;57.00
67817;DHT22;54614;47.576;7.524;2023-06-10T00:27:00;26.30;57.00
67817;DHT22;54614;47.576;7.524;2023-06-10T00:29:26;26.30;57.00
67817;DHT22;54614;47.576;7.524;2023-06-10T00:31:52;26.30;57.10
67817;DHT22;54614;47.576;7.524;2023-06-10T00:34:23;26.30;57.00
67817;DHT22;54614;47.576;7.524;2023-06-10T00:36:49;26.30;57.10
67817;DHT22;54614;47.576;7.524;2023-06-10T00:39:15;26.20;57.00
67817;DHT22;54614;47.576;7.524;2023-06-10T00:41:42;26.30;57.10
67817;DHT22;54614;47.576;7.524;2023-06-10T00:44:08;26.30;57.10
67817;DHT22;54614;47.576;7.524;2023-06-10T00:46:34;26.30;57.00
67817;DHT22;54614;47.576;7.524;2023-06-10T00:49:00;26.20;57.00
67817;DHT22;54614;47.576;7.524;2023-06-10T00:51:27;26.30;57.10
67817;DHT22;54614;47.576;7.524;2023-06-10T00:53:53;26.30;57.00
67817;DHT22;54614;47.576;7.524;2023-06-10T00:56:20;26.30;57.00
67817;DHT22;54614;47.576;7.524;2023-06-10T00:58:47;26.30;57.00
67817;DHT22;54614;47.576;7.524;2023-06-10T01:01:13;26.30;57.00
67817;DHT22;54614;47.576;7.524;2023-06-10T01:03:39;26.30;57.00
67817;DHT22;54614;47.576;7.524;2023-06-10T01:08:55;26.20;57.00
67817;DHT22;54614;47.576;7.524;2023-06-10T01:11:36;26.30;57.00
67817;DHT22;54614;47.576;7.524;2023-06-10T01:14:18;26.30;56.90
67817;DHT22;54614;47.576;7.524;2023-06-10T01:16:46;26.30;57.00
67817;DHT22;54614;47.576;7.524;2023-06-10T01:19:12;26.30;57.00
67817;DHT22;54614;47.576;7.524;2023-06-10T01:21:43;26.30;57.00
67817;DHT22;54614;47.576;7.524;2023-06-10T01:24:14;26.30;57.00
67817;DHT22;54614;47.576;7.524;2023-06-10T01:26:44;26.20;57.00
67817;DHT22;54614;47.576;7.524;2023-06-10T01:29:29;26.20;57.00
67817;DHT22;54614;47.576;7.524;2023-06-10T01:32:17;26.20;57.00
67817;DHT22;54614;47.576;7.524;2023-06-10T01:34:47;26.20;57.00
67817;DHT22;54614;47.576;7.524;2023-06-10T01:37:18;26.30;57.00
67817;DHT22;54614;47.576;7.524;2023-06-10T01:39:48;26.20;57.00
67817;DHT22;54614;47.576;7.524;2023-06-10T01:42:15;26.20;57.00
67817;DHT22;54614;47.576;7.524;2023-06-10T01:44:42;26.20;57.00
67817;DHT22;54614;47.576;7.524;2023-06-10T01:47:08;26.20;57.00
67817;DHT22;54614;47.576;7.524;2023-06-10T01:49:34;26.20;57.00
67817;DHT22;54614;47.576;7.524;2023-06-10T01:52:00;26.20;57.00
67817;DHT22;54614;47.576;7.524;2023-06-10T01:54:26;26.20;57.00
67817;DHT22;54614;47.576;7.524;2023-06-10T01:56:52;26.20;57.00
67817;DHT22;54614;47.576;7.524;2023-06-10T01:59:18;26.30;57.00
67817;DHT22;54614;47.576;7.524;2023-06-10T02:01:43;26.20;57.10
67817;DHT22;54614;47.576;7.524;2023-06-10T02:04:09;26.20;57.00
67817;DHT22;54614;47.576;7.524;2023-06-10T02:06:35;26.30;57.10
67817;DHT22;54614;47.576;7.524;2023-06-10T02:09:03;26.20;57.00
67817;DHT22;54614;47.576;7.524;2023-06-10T02:11:29;26.20;57.00
67817;DHT22;54614;47.576;7.524;2023-06-10T02:13:55;26.20;57.00
67817;DHT22;54614;47.576;7.524;2023-06-10T02:16:20;26.40;56.90
67817;DHT22;54614;47.576;7.524;2023-06-10T02:18:47;26.40;56.90
67817;DHT22;54614;47.576;7.524;2023-06-10T02:21:14;26.50;56.80
67817;DHT22;54614;47.576;7.524;2023-06-10T02:23:40;26.40;56.90
67817;DHT22;54614;47.576;7.524;2023-06-10T02:26:06;26.40;57.10
67817;DHT22;54614;47.576;7.524;2023-06-10T02:28:32;26.40;57.10
67817;DHT22;54614;47.576;7.524;2023-06-10T02:30:57;26.30;57.10
67817;DHT22;54614;47.576;7.524;2023-06-10T02:33:24;26.30;57.10
67817;DHT22;54614;47.576;7.524;2023-06-10T02:35:50;26.60;57.10
67817;DHT22;54614;47.576;7.524;2023-06-10T02:38:16;26.70;56.80
67817;DHT22;54614;47.576;7.524;2023-06-10T02:40:42;26.70;56.70
67817;DHT22;54614;47.576;7.524;2023-06-10T02:43:09;26.80;56.60
67817;DHT22;54614;47.576;7.524;2023-06-10T02:45:35;26.80;56.40
67817;DHT22;54614;47.576;7.524;2023-06-10T02:48:01;26.70;56.60
67817;DHT22;54614;47.576;7.524;2023-06-10T02:50:26;26.70;56.70
67817;DHT22;54614;47.576;7.524;2023-06-10T02:52:52;26.60;56.70
67817;DHT22;54614;47.576;7.524;2023-06-10T02:55:18;26.60;56.90
67817;DHT22;54614;47.576;7.524;2023-06-10T02:57:44;26.50;56.90
67817;DHT22;54614;47.576;7.524;2023-06-10T03:00:10;26.40;57.30
67817;DHT22;54614;47.576;7.524;2023-06-10T03:02:37;26.40;57.40
67817;DHT22;54614;47.576;7.524;2023-06-10T03:05:05;26.30;57.30
67817;DHT22;54614;47.576;7.524;2023-06-10T03:07:35;26.30;57.20
67817;DHT22;54614;47.576;7.524;2023-06-10T03:10:02;26.30;57.30
67817;DHT22;54614;47.576;7.524;2023-06-10T03:12:28;26.20;57.10
67817;DHT22;54614;47.576;7.524;2023-06-10T03:14:54;26.30;57.10
67817;DHT22;54614;47.576;7.524;2023-06-10T03:17:20;26.20;57.00
67817;DHT22;54614;47.576;7.524;2023-06-10T03:19:45;26.20;57.00
67817;DHT22;54614;47.576;7.524;2023-06-10T03:22:13;26.20;57.10
67817;DHT22;54614;47.576;7.524;2023-06-10T03:24:40;26.20;57.10
67817;DHT22;54614;47.576;7.524;2023-06-10T03:27:07;26.20;57.10
67817;DHT22;54614;47.576;7.524;2023-06-10T03:29:33;26.20;57.10
67817;DHT22;54614;47.576;7.524;2023-06-10T03:31:59;26.20;57.10
67817;DHT22;54614;47.576;7.524;2023-06-10T03:34:25;26.10;57.10
67817;DHT22;54614;47.576;7.524;2023-06-10T03:36:51;26.10;57.10
67817;DHT22;54614;47.576;7.524;2023-06-10T03:39:17;26.10;57.00
67817;DHT22;54614;47.576;7.524;2023-06-10T03:41:42;26.10;57.00
67817;DHT22;54614;47.576;7.524;2023-06-10T03:44:08;26.20;57.10
67817;DHT22;54614;47.576;7.524;2023-06-10T03:46:34;26.20;56.90
67817;DHT22;54614;47.576;7.524;2023-06-10T03:48:59;26.20;56.80
67817;DHT22;54614;47.576;7.524;2023-06-10T03:51:29;26.20;57.00
67817;DHT22;54614;47.576;7.524;2023-06-10T03:53:55;26.20;57.00
67817;DHT22;54614;47.576;7.524;2023-06-10T03:56:21;26.10;56.90
67817;DHT22;54614;47.576;7.524;2023-06-10T03:58:47;26.20;57.00
67817;DHT22;54614;47.576;7.524;2023-06-10T04:01:12;26.20;57.00
67817;DHT22;54614;47.576;7.524;2023-06-10T04:03:39;26.10;57.00
67817;DHT22;54614;47.576;7.524;2023-06-10T04:06:07;26.10;57.00
67817;DHT22;54614;47.576;7.524;2023-06-10T04:08:33;26.10;57.00
67817;DHT22;54614;47.576;7.524;2023-06-10T04:10:59;26.10;57.00
67817;DHT22;54614;47.576;7.524;2023-06-10T04:13:25;26.10;57.00
67817;DHT22;54614;47.576;7.524;2023-06-10T04:15:51;26.10;57.00
67817;DHT22;54614;47.576;7.524;2023-06-10T04:18:17;26.10;57.00
67817;DHT22;54614;47.576;7.524;2023-06-10T04:20:43;26.10;57.00
67817;DHT22;54614;47.576;7.524;2023-06-10T04:23:10;26.10;57.00
67817;DHT22;54614;47.576;7.524;2023-06-10T04:25:36;26.10;57.10
67817;DHT22;54614;47.576;7.524;2023-06-10T04:28:01;26.10;57.00
67817;DHT22;54614;47.576;7.524;2023-06-10T04:30:28;26.10;57.00
67817;DHT22;54614;47.576;7.524;2023-06-10T04:32:54;26.10;57.00
67817;DHT22;54614;47.576;7.524;2023-06-10T04:35:19;26.10;57.00
67817;DHT22;54614;47.576;7.524;2023-06-10T04:37:45;26.10;57.00
67817;DHT22;54614;47.576;7.524;2023-06-10T04:40:11;26.10;57.10
67817;DHT22;54614;47.576;7.524;2023-06-10T04:42:37;26.10;57.10
67817;DHT22;54614;47.576;7.524;2023-06-10T04:45:03;26.10;57.00
67817;DHT22;54614;47.576;7.524;2023-06-10T04:47:30;26.10;57.00
67817;DHT22;54614;47.576;7.524;2023-06-10T04:49:59;26.10;57.00
67817;DHT22;54614;47.576;7.524;2023-06-10T04:52:26;26.10;57.10
67817;DHT22;54614;47.576;7.524;2023-06-10T04:54:53;26.10;57.00
67817;DHT22;54614;47.576;7.524;2023-06-10T04:57:19;26.10;57.00
67817;DHT22;54614;47.576;7.524;2023-06-10T04:59:47;26.10;57.00
67817;DHT22;54614;47.576;7.524;2023-06-10T05:02:13;26.10;57.00
67817;DHT22;54614;47.576;7.524;2023-06-10T05:04:39;26.10;57.00
67817;DHT22;54614;47.576;7.524;2023-06-10T05:07:05;26.10;57.00
67817;DHT22;54614;47.576;7.524;2023-06-10T05:09:31;26.10;57.00
67817;DHT22;54614;47.576;7.524;2023-06-10T05:11:58;26.10;57.20
67817;DHT22;54614;47.576;7.524;2023-06-10T05:14:23;26.10;57.10
67817;DHT22;54614;47.576;7.524;2023-06-10T05:16:49;26.10;57.00
67817;DHT22;54614;47.576;7.524;2023-06-10T05:19:16;26.10;57.00
67817;DHT22;54614;47.576;7.524;2023-06-10T05:21:42;26.20;57.00
67817;DHT22;54614;47.576;7.524;2023-06-10T05:24:08;26.10;56.90
67817;DHT22;54614;47.576;7.524;2023-06-10T05:26:34;26.20;56.90
67817;DHT22;54614;47.576;7.524;2023-06-10T05:29:03;26.20;57.00
67817;DHT22;54614;47.576;7.524;2023-06-10T05:31:29;26.10;56.90
67817;DHT22;54614;47.576;7.524;2023-06-10T05:33:55;26.30;56.90
67817;DHT22;54614;47.576;7.524;2023-06-10T05:36:21;26.30;56.70
67817;DHT22;54614;47.576;7.524;2023-06-10T05:38:47;26.20;56.80
67817;DHT22;54614;47.576;7.524;2023-06-10T05:41:13;26.30;57.30
67817;DHT22;54614;47.576;7.524;2023-06-10T05:43:39;26.40;57.00
67817;DHT22;54614;47.576;7.524;2023-06-10T05:46:05;26.70;56.90
67817;DHT22;54614;47.576;7.524;2023-06-10T05:48:31;26.40;57.20
67817;DHT22;54614;47.576;7.524;2023-06-10T05:50:57;26.30;57.40
67817;DHT22;54614;47.576;7.524;2023-06-10T05:53:22;26.20;58.10
67817;DHT22;54614;47.576;7.524;2023-06-10T05:55:48;26.10;58.20
67817;DHT22;54614;47.576;7.524;2023-06-10T05:58:14;26.10;58.50
67817;DHT22;54614;47.576;7.524;2023-06-10T06:00:40;26.10;58.60
67817;DHT22;54614;47.576;7.524;2023-06-10T06:03:09;26.00;58.60
67817;DHT22;54614;47.576;7.524;2023-06-10T06:05:36;25.50;59.90
67817;DHT22;54614;47.576;7.524;2023-06-10T06:08:04;25.70;59.70
67817;DHT22;54614;47.576;7.524;2023-06-10T06:10:30;25.80;59.50
67817;DHT22;54614;47.576;7.524;2023-06-10T06:12:56;25.70;59.50
67817;DHT22;54614;47.576;7.524;2023-06-10T06:15:22;25.80;59.70
67817;DHT22;54614;47.576;7.524;2023-06-10T06:17:48;25.80;59.60
67817;DHT22;54614;47.576;7.524;2023-06-10T06:20:14;25.80;59.60
67817;DHT22;54614;47.576;7.524;2023-06-10T06:22:40;24.80;60.70
67817;DHT22;54614;47.576;7.524;2023-06-10T06:25:06;25.00;61.20
67817;DHT22;54614;47.576;7.524;2023-06-10T06:27:32;24.20;63.10
67817;DHT22;54614;47.576;7.524;2023-06-10T06:29:57;24.70;62.40
67817;DHT22;54614;47.576;7.524;2023-06-10T06:32:24;24.90;61.50
67817;DHT22;54614;47.576;7.524;2023-06-10T06:34:53;25.30;61.80
67817;DHT22;54614;47.576;7.524;2023-06-10T06:37:25;25.30;61.60
67817;DHT22;54614;47.576;7.524;2023-06-10T06:39:51;25.50;61.20
67817;DHT22;54614;47.576;7.524;2023-06-10T06:42:18;25.50;60.80
67817;DHT22;54614;47.576;7.524;2023-06-10T06:44:46;25.50;60.00
67817;DHT22;54614;47.576;7.524;2023-06-10T06:47:13;25.50;59.80
67817;DHT22;54614;47.576;7.524;2023-06-10T06:49:39;25.60;59.60
67817;DHT22;54614;47.576;7.524;2023-06-10T06:52:05;25.60;59.50
67817;DHT22;54614;47.576;7.524;2023-06-10T06:54:31;25.60;62.70
67817;DHT22;54614;47.576;7.524;2023-06-10T06:56:57;25.60;66.00
67817;DHT22;54614;47.576;7.524;2023-06-10T06:59:23;25.70;63.00
67817;DHT22;54614;47.576;7.524;2023-06-10T07:01:51;25.70;62.90
67817;DHT22;54614;47.576;7.524;2023-06-10T07:04:17;25.80;63.90
67817;DHT22;54614;47.576;7.524;2023-06-10T07:06:42;25.80;63.30
67817;DHT22;54614;47.576;7.524;2023-06-10T07:09:29;26.00;62.60
67817;DHT22;54614;47.576;7.524;2023-06-10T07:11:55;26.20;61.90
67817;DHT22;54614;47.576;7.524;2023-06-10T07:14:21;26.30;62.60
67817;DHT22;54614;47.576;7.524;2023-06-10T07:16:47;26.50;62.70
67817;DHT22;54614;47.576;7.524;2023-06-10T07:19:13;26.40;61.90
67817;DHT22;54614;47.576;7.524;2023-06-10T07:21:39;26.50;62.30
67817;DHT22;54614;47.576;7.524;2023-06-10T07:24:05;26.60;62.10
67817;DHT22;54614;47.576;7.524;2023-06-10T07:26:31;26.40;62.60
67817;DHT22;54614;47.576;7.524;2023-06-10T07:28:57;26.20;62.40
67817;DHT22;54614;47.576;7.524;2023-06-10T07:31:23;26.10;62.40
67817;DHT22;54614;47.576;7.524;2023-06-10T07:33:50;26.10;62.40
67817;DHT22;54614;47.576;7.524;2023-06-10T07:36:15;26.10;62.10
67817;DHT22;54614;47.576;7.524;2023-06-10T07:38:41;26.20;61.90
67817;DHT22;54614;47.576;7.524;2023-06-10T07:41:08;26.10;61.60
67817;DHT22;54614;47.576;7.524;2023-06-10T07:43:35;26.20;61.40
67817;DHT22;54614;47.576;7.524;2023-06-10T07:46:01;26.20;60.60
67817;DHT22;54614;47.576;7.524;2023-06-10T07:48:26;26.40;60.00
67817;DHT22;54614;47.576;7.524;2023-06-10T07:50:52;26.60;59.70
67817;DHT22;54614;47.576;7.524;2023-06-10T07:53:18;26.70;59.50
67817;DHT22;54614;47.576;7.524;2023-06-10T07:55:44;26.70;59.30
67817;DHT22;54614;47.576;7.524;2023-06-10T07:58:10;26.70;59.00
67817;DHT22;54614;47.576;7.524;2023-06-10T08:00:35;26.80;59.00
67817;DHT22;54614;47.576;7.524;2023-06-10T08:03:01;26.80;59.00
67817;DHT22;54614;47.576;7.524;2023-06-10T08:05:27;26.80;58.80
67817;DHT22;54614;47.576;7.524;2023-06-10T08:07:53;26.80;58.80
67817;DHT22;54614;47.576;7.524;2023-06-10T08:10:19;26.80;58.80
67817;DHT22;54614;47.576;7.524;2023-06-10T08:12:45;26.80;58.80
67817;DHT22;54614;47.576;7.524;2023-06-10T08:15:11;26.70;58.70
67817;DHT22;54614;47.576;7.524;2023-06-10T08:17:37;26.70;58.70
67817;DHT22;54614;47.576;7.524;2023-06-10T08:20:04;26.70;58.60
67817;DHT22;54614;47.576;7.524;2023-06-10T08:22:31;26.80;58.60
67817;DHT22;54614;47.576;7.524;2023-06-10T08:24:57;26.70;58.50
67817;DHT22;54614;47.576;7.524;2023-06-10T08:27:23;26.80;58.80
67817;DHT22;54614;47.576;7.524;2023-06-10T08:29:48;26.70;58.50
67817;DHT22;54614;47.576;7.524;2023-06-10T08:32:14;26.70;58.50
67817;DHT22;54614;47.576;7.524;2023-06-10T08:34:40;26.70;58.60
67817;DHT22;54614;47.576;7.524;2023-06-10T08:37:06;26.70;58.70
67817;DHT22;54614;47.576;7.524;2023-06-10T08:39:32;26.70;58.50
67817;DHT22;54614;47.576;7.524;2023-06-10T08:44:40;26.70;58.70
67817;DHT22;54614;47.576;7.524;2023-06-10T08:47:16;26.60;58.70
67817;DHT22;54614;47.576;7.524;2023-06-10T08:49:46;26.60;58.70
67817;DHT22;54614;47.576;7.524;2023-06-10T08:52:17;26.50;58.70
67817;DHT22;54614;47.576;7.524;2023-06-10T08:57:26;26.50;58.80
67817;DHT22;54614;47.576;7.524;2023-06-10T08:59:53;26.40;58.80
67817;DHT22;54614;47.576;7.524;2023-06-10T09:02:21;26.40;58.90
67817;DHT22;54614;47.576;7.524;2023-06-10T09:04:49;26.40;59.00
67817;DHT22;54614;47.576;7.524;2023-06-10T09:07:16;26.40;59.00
67817;DHT22;54614;47.576;7.524;2023-06-10T09:09:43;26.30;59.00
67817;DHT22;54614;47.576;7.524;2023-06-10T09:12:14;26.30;59.00
67817;DHT22;54614;47.576;7.524;2023-06-10T09:14:43;26.20;59.10
67817;DHT22;54614;47.576;7.524;2023-06-10T09:17:10;26.20;59.10
67817;DHT22;54614;47.576;7.524;2023-06-10T09:19:36;26.20;59.10
67817;DHT22;54614;47.576;7.524;2023-06-10T09:22:04;26.20;59.00
67817;DHT22;54614;47.576;7.524;2023-06-10T09:24:30;26.30;59.00
67817;DHT22;54614;47.576;7.524;2023-06-10T09:27:04;26.20;59.00
67817;DHT22;54614;47.576;7.524;2023-06-10T09:29:44;26.20;59.70
67817;DHT22;54614;47.576;7.524;2023-06-10T09:32:18;26.20;59.10
67817;DHT22;54614;47.576;7.524;2023-06-10T09:34:45;26.20;59.10
67817;DHT22;54614;47.576;7.524;2023-06-10T09:37:11;26.20;59.10
67817;DHT22;54614;47.576;7.524;2023-06-10T09:39:39;26.20;59.10
67817;DHT22;54614;47.576;7.524;2023-06-10T09:42:18;26.20;59.20
67817;DHT22;54614;47.576;7.524;2023-06-10T09:44:51;26.20;59.10
67817;DHT22;54614;47.576;7.524;2023-06-10T09:47:24;26.20;59.10
67817;DHT22;54614;47.576;7.524;2023-06-10T09:49:50;26.20;59.10
67817;DHT22;54614;47.576;7.524;2023-06-10T09:52:26;26.20;58.90
67817;DHT22;54614;47.576;7.524;2023-06-10T09:54:54;26.20;58.90
67817;DHT22;54614;47.576;7.524;2023-06-10T09:57:25;26.30;59.00
67817;DHT22;54614;47.576;7.524;2023-06-10T09:59:55;26.40;58.70
67817;DHT22;54614;47.576;7.524;2023-06-10T10:02:21;26.40;58.70
67817;DHT22;54614;47.576;7.524;2023-06-10T10:04:47;26.30;58.80
67817;DHT22;54614;47.576;7.524;2023-06-10T10:07:13;26.50;58.60
67817;DHT22;54614;47.576;7.524;2023-06-10T10:09:40;26.40;58.70
67817;DHT22;54614;47.576;7.524;2023-06-10T10:12:10;26.40;58.70
67817;DHT22;54614;47.576;7.524;2023-06-10T10:14:38;26.40;58.70
67817;DHT22;54614;47.576;7.524;2023-06-10T10:17:07;26.40;58.70
67817;DHT22;54614;47.576;7.524;2023-06-10T10:20:03;26.50;58.80
67817;DHT22;54614;47.576;7.524;2023-06-10T10:22:38;26.80;59.60
67817;DHT22;54614;47.576;7.524;2023-06-10T10:25:10;26.90;59.50
67817;DHT22;54614;47.576;7.524;2023-06-10T10:27:45;26.90;59.60
67817;DHT22;54614;47.576;7.524;2023-06-10T10:30:14;27.00;59.80
67817;DHT22;54614;47.576;7.524;2023-06-10T10:33:04;27.10;59.60
67817;DHT22;54614;47.576;7.524;2023-06-10T10:35:33;26.80;59.50
67817;DHT22;54614;47.576;7.524;2023-06-10T10:38:00;26.70;59.60
67817;DHT22;54614;47.576;7.524;2023-06-10T10:40:29;26.70;59.70
67817;DHT22;54614;47.576;7.524;2023-06-10T10:42:56;26.70;60.80
67817;DHT22;54614;47.576;7.524;2023-06-10T10:45:23;26.90;60.80
67817;DHT22;54614;47.576;7.524;2023-06-10T10:47:53;26.90;60.30
67817;DHT22;54614;47.576;7.524;2023-06-10T10:50:21;26.70;60.20
67817;DHT22;54614;47.576;7.524;2023-06-10T10:52:56;26.90;60.70
67817;DHT22;54614;47.576;7.524;2023-06-10T10:55:25;27.20;60.60
67817;DHT22;54614;47.576;7.524;2023-06-10T11:00:36;27.10;60.40
67817;DHT22;54614;47.576;7.524;2023-06-10T11:10:58;27.30;60.20
67817;DHT22;54614;47.576;7.524;2023-06-10T11:13:26;27.20;59.90
67817;DHT22;54614;47.576;7.524;2023-06-10T11:15:57;26.90;60.00
67817;DHT22;54614;47.576;7.524;2023-06-10T11:18:24;26.80;60.00
67817;DHT22;54614;47.576;7.524;2023-06-10T11:20:53;26.80;59.80
67817;DHT22;54614;47.576;7.524;2023-06-10T11:26:12;26.70;59.60
67817;DHT22;54614;47.576;7.524;2023-06-10T11:31:27;26.70;59.50
67817;DHT22;54614;47.576;7.524;2023-06-10T11:33:55;26.70;59.30
67817;DHT22;54614;47.576;7.524;2023-06-10T11:36:23;26.70;59.20
67817;DHT22;54614;47.576;7.524;2023-06-10T11:38:56;26.70;59.10
67817;DHT22;54614;47.576;7.524;2023-06-10T11:41:25;26.70;59.00
67817;DHT22;54614;47.576;7.524;2023-06-10T11:43:54;26.70;59.00
67817;DHT22;54614;47.576;7.524;2023-06-10T11:46:24;26.90;59.70
67817;DHT22;54614;47.576;7.524;2023-06-10T11:51:21;27.20;60.10
67817;DHT22;54614;47.576;7.524;2023-06-10T11:53:50;27.00;60.90
67817;DHT22;54614;47.576;7.524;2023-06-10T11:56:22;27.00;62.10
67817;DHT22;54614;47.576;7.524;2023-06-10T11:58:55;27.00;61.90
67817;DHT22;54614;47.576;7.524;2023-06-10T12:01:24;26.80;61.60
67817;DHT22;54614;47.576;7.524;2023-06-10T12:06:41;26.70;61.90
67817;DHT22;54614;47.576;7.524;2023-06-10T12:12:02;26.70;62.40
67817;DHT22;54614;47.576;7.524;2023-06-10T12:14:52;26.70;62.10
67817;DHT22;54614;47.576;7.524;2023-06-10T12:19:59;26.90;63.10
67817;DHT22;54614;47.576;7.524;2023-06-10T12:22:26;26.90;61.30
67817;DHT22;54614;47.576;7.524;2023-06-10T12:25:03;26.80;62.00
67817;DHT22;54614;47.576;7.524;2023-06-10T12:27:33;26.90;61.50
67817;DHT22;54614;47.576;7.524;2023-06-10T12:30:01;26.80;61.20
67817;DHT22;54614;47.576;7.524;2023-06-10T12:35:03;26.70;61.00
67817;DHT22;54614;47.576;7.524;2023-06-10T12:37:30;26.70;60.90
67817;DHT22;54614;47.576;7.524;2023-06-10T12:40:03;26.70;60.90
67817;DHT22;54614;47.576;7.524;2023-06-10T12:42:31;26.70;60.80
67817;DHT22;54614;47.576;7.524;2023-06-10T12:45:00;26.60;60.70
67817;DHT22;54614;47.576;7.524;2023-06-10T12:47:33;26.60;60.60
67817;DHT22;54614;47.576;7.524;2023-06-10T12:50:01;26.70;60.60
67817;DHT22;54614;47.576;7.524;2023-06-10T12:52:28;26.70;60.60
67817;DHT22;54614;47.576;7.524;2023-06-10T12:54:54;26.60;60.50
67817;DHT22;54614;47.576;7.524;2023-06-10T12:57:23;26.60;60.40
67817;DHT22;54614;47.576;7.524;2023-06-10T12:59:50;26.60;60.40
67817;DHT22;54614;47.576;7.524;2023-06-10T13:02:19;26.60;60.30
67817;DHT22;54614;47.576;7.524;2023-06-10T13:04:46;26.60;60.30
67817;DHT22;54614;47.576;7.524;2023-06-10T13:07:12;26.60;60.10
67817;DHT22;54614;47.576;7.524;2023-06-10T13:09:38;26.70;60.20
67817;DHT22;54614;47.576;7.524;2023-06-10T13:12:05;26.60;60.10
67817;DHT22;54614;47.576;7.524;2023-06-10T13:14:31;26.70;60.10
67817;DHT22;54614;47.576;7.524;2023-06-10T13:16:57;26.70;60.00
67817;DHT22;54614;47.576;7.524;2023-06-10T13:19:23;26.70;60.00
67817;DHT22;54614;47.576;7.524;2023-06-10T13:21:48;26.70;60.80
67817;DHT22;54614;47.576;7.524;2023-06-10T13:24:14;26.80;60.70
67817;DHT22;54614;47.576;7.524;2023-06-10T13:26:40;26.90;61.30
67817;DHT22;54614;47.576;7.524;2023-06-10T13:29:06;26.80;61.40
67817;DHT22;54614;47.576;7.524;2023-06-10T13:31:33;26.80;61.40
67817;DHT22;54614;47.576;7.524;2023-06-10T13:33:59;26.80;62.00
67817;DHT22;54614;47.576;7.524;2023-06-10T13:36:25;26.90;62.10
67817;DHT22;54614;47.576;7.524;2023-06-10T13:38:51;26.90;62.80
67817;DHT22;54614;47.576;7.524;2023-06-10T13:41:16;27.00;61.80
67817;DHT22;54614;47.576;7.524;2023-06-10T13:43:42;26.80;62.70
67817;DHT22;54614;47.576;7.524;2023-06-10T13:46:08;26.70;62.60
67817;DHT22;54614;47.576;7.524;2023-06-10T13:48:34;26.70;62.60
67817;DHT22;54614;47.576;7.524;2023-06-10T13:51:00;26.70;62.30
67817;DHT22;54614;47.576;7.524;2023-06-10T13:53:26;26.90;63.10
67817;DHT22;54614;47.576;7.524;2023-06-10T13:55:52;26.80;63.00
67817;DHT22;54614;47.576;7.524;2023-06-10T13:58:18;26.80;62.80
67817;DHT22;54614;47.576;7.524;2023-06-10T14:00:44;26.80;63.30
67817;DHT22;54614;47.576;7.524;2023-06-10T14:03:09;26.70;62.90
67817;DHT22;54614;47.576;7.524;2023-06-10T14:05:35;26.70;63.60
67817;DHT22;54614;47.576;7.524;2023-06-10T14:08:01;26.80;62.30
67817;DHT22;54614;47.576;7.524;2023-06-10T14:10:27;26.90;62.40
67817;DHT22;54614;47.576;7.524;2023-06-10T14:12:52;26.90;62.50
67817;DHT22;54614;47.576;7.524;2023-06-10T14:15:19;26.90;62.50
67817;DHT22;54614;47.576;7.524;2023-06-10T14:17:44;26.80;63.00
67817;DHT22;54614;47.576;7.524;2023-06-10T14:20:11;26.70;62.70
67817;DHT22;54614;47.576;7.524;2023-06-10T14:22:37;26.90;63.00
67817;DHT22;54614;47.576;7.524;2023-06-10T14:25:03;27.00;62.90
67817;DHT22;54614;47.576;7.524;2023-06-10T14:27:29;27.00;62.30
67817;DHT22;54614;47.576;7.524;2023-06-10T14:29:55;27.00;62.10
67817;DHT22;54614;47.576;7.524;2023-06-10T14:32:21;27.00;61.60
67817;DHT22;54614;47.576;7.524;2023-06-10T14:34:46;27.10;61.90
67817;DHT22;54614;47.576;7.524;2023-06-10T14:37:12;27.20;61.30
67817;DHT22;54614;47.576;7.524;2023-06-10T14:39:38;27.30;61.30
67817;DHT22;54614;47.576;7.524;2023-06-10T14:42:04;27.30;61.20
67817;DHT22;54614;47.576;7.524;2023-06-10T14:44:30;27.30;61.10
67817;DHT22;54614;47.576;7.524;2023-06-10T14:46:56;27.30;61.20
67817;DHT22;54614;47.576;7.524;2023-06-10T14:49:22;27.30;61.20
67817;DHT22;54614;47.576;7.524;2023-06-10T14:51:49;27.30;61.60
67817;DHT22;54614;47.576;7.524;2023-06-10T14:54:16;27.30;61.30
67817;DHT22;54614;47.576;7.524;2023-06-10T14:56:42;27.30;60.90
67817;DHT22;54614;47.576;7.524;2023-06-10T14:59:07;27.40;60.80
67817;DHT22;54614;47.576;7.524;2023-06-10T15:01:33;27.40;60.60
67817;DHT22;54614;47.576;7.524;2023-06-10T15:03:59;27.50;60.90
67817;DHT22;54614;47.576;7.524;2023-06-10T15:06:25;27.40;60.40
67817;DHT22;54614;47.576;7.524;2023-06-10T15:08:51;27.50;60.40
67817;DHT22;54614;47.576;7.524;2023-06-10T15:11:17;27.50;60.20
67817;DHT22;54614;47.576;7.524;2023-06-10T15:13:43;27.40;61.20
67817;DHT22;54614;47.576;7.524;2023-06-10T15:16:09;27.20;61.70
67817;DHT22;54614;47.576;7.524;2023-06-10T15:18:35;27.10;61.90
67817;DHT22;54614;47.576;7.524;2023-06-10T15:21:01;27.00;62.10
67817;DHT22;54614;47.576;7.524;2023-06-10T15:23:27;27.00;62.00
67817;DHT22;54614;47.576;7.524;2023-06-10T15:25:53;27.00;61.70
67817;DHT22;54614;47.576;7.524;2023-06-10T15:28:19;27.00;61.60
67817;DHT22;54614;47.576;7.524;2023-06-10T15:30:44;27.10;61.40
67817;DHT22;54614;47.576;7.524;2023-06-10T15:33:10;27.40;60.30
67817;DHT22;54614;47.576;7.524;2023-06-10T15:35:36;27.60;59.90
67817;DHT22;54614;47.576;7.524;2023-06-10T15:38:02;27.70;59.60
67817;DHT22;54614;47.576;7.524;2023-06-10T15:40:28;27.80;59.40
67817;DHT22;54614;47.576;7.524;2023-06-10T15:42:54;27.90;59.30
67817;DHT22;54614;47.576;7.524;2023-06-10T15:45:20;28.00;59.10
67817;DHT22;54614;47.576;7.524;2023-06-10T15:47:46;27.90;59.00
67817;DHT22;54614;47.576;7.524;2023-06-10T15:50:11;27.90;58.90
67817;DHT22;54614;47.576;7.524;2023-06-10T15:52:37;27.90;59.00
67817;DHT22;54614;47.576;7.524;2023-06-10T15:55:03;27.90;59.00
67817;DHT22;54614;47.576;7.524;2023-06-10T15:57:29;28.00;58.90
67817;DHT22;54614;47.576;7.524;2023-06-10T15:59:55;28.00;58.80
67817;DHT22;54614;47.576;7.524;2023-06-10T16:02:21;28.00;58.90
67817;DHT22;54614;47.576;7.524;2023-06-10T16:04:47;28.10;59.30
67817;DHT22;54614;47.576;7.524;2023-06-10T16:07:13;28.00;59.10
67817;DHT22;54614;47.576;7.524;2023-06-10T16:09:38;28.10;58.30